Hartford, Connecticut
Traffic Map
Current Weather Conditions
Hartford, Connecticut
Overcast Light Rain
Overcast
53°
Feels Like: 53°
Wind Chill: 53° Ceiling: 1600
Heat Index: 53° Visibility: 4mi
Dew Point: 52° Wind: 14mph
Humidity: 96% Direction: 10° (N)
Pressure: 30.32in Gusts: 0mph
Raw Report DataKHFD 010253Z 01012KT 4SM -RA BR SCT007 OVC016 12/11 A3032 RMK AO2 SLP265 P0000 60007 T01170111 58004
Traffic Incident Summary
Active as of:
Severity:
Category:
InformationThere was an issue retrieving the traffic information for this location. Please try a different location or try again shortly.
Advertisements
Track Severe Weather on mobile